• Join FlightAware (Why Join?)
  • Login
  • US Flag 
01:55AM EDT


 

Airport Tracker/Info


-or-


 

Live Flight TrackerFlight Track Log ✈ UAL4543 ✈ 03-May-2013 ✈ KEWR - KDSM

Flight Track Log - Related Links

Times and Time Zones

All times are in EDT time to prevent confusion due to time zone crossing. See the UAL4543 flight status page for this flight to view local times or setup timezone preferences in your user account.

Time Position Orientation Groundspeed Altitude Reporting Facility
EDT Latitude Longitude Course Direction KTS MPH feet Rate Location/Type
08:28PM 40.6667 -74.1833 288° West 165 190 800  Level New York TRACON
08:29PM 40.6167 -74.2167 207° Southwest 213 245 2,200 1,380 Climbing New York TRACON
08:30PM 40.5667 -74.2667 217° Southwest 256 295 3,600 1,680 Climbing New York TRACON
08:31PM 40.6000 -74.3667 294° West 274 315 5,600 2,220 Climbing New York TRACON
08:33PM 40.6575 -74.5433 293° West 291 335 10,200 1,680 Climbing New York Center
08:34PM 40.8782 -75.0129 288° West  Level FlightAware Approximate
08:34PM 40.6919 -74.6439 294° West 291 335 10,800  Level New York Center
08:35PM 40.7314 -74.7667 293° West 344 396 11,800 1,020 Climbing New York Center
08:36PM 40.7711 -74.8867 294° West 356 410 12,900 1,140 Climbing New York Center
08:37PM 40.8217 -74.9883 303° West 368 423 14,100 1,140 Climbing New York Center
08:38PM 40.8825 -75.0964 307° West 373 429 15,300 1,200 Climbing New York Center
08:39PM 40.8978 -75.2458 278° West 367 422 16,600 1,080 Climbing New York Center
08:40PM 40.8714 -75.3839 256° West 365 420 17,500 660 Climbing New York Center
08:41PM 40.8408 -75.5244 254° West 394 453 18,000 720 Climbing New York Center
08:42PM 40.8058 -75.6675 252° West 406 467 19,000 900 Climbing New York Center
08:43PM 40.7736 -75.7939 251° West 412 474 19,900 840 Climbing New York Center
08:44PM 40.7381 -75.9419 252° West 417 480 20,800 960 Climbing New York Center
08:45PM 40.6975 -76.1003 251° West 417 480 21,800 1,020 Climbing New York Center
08:46PM 40.6678 -76.2514 256° West 417 480 22,900 1,080 Climbing New York Center
08:47PM 40.6858 -76.4006 279° West 408 470 24,000 1,020 Climbing New York Center
08:48PM 40.7083 -76.5394 282° West 400 460 25,000 960 Climbing New York Center
08:49PM 40.7300 -76.6892 281° West 406 467 26,000 900 Climbing New York Center
08:50PM 40.7519 -76.8333 281° West 411 473 26,900 840 Climbing New York Center
08:51PM 40.7736 -76.9781 281° West 411 473 27,800 900 Climbing New York Center
08:52PM 40.7933 -77.1169 281° West 405 466 28,800 960 Climbing New York Center
08:53PM 40.8128 -77.2583 280° West 400 460 29,700 900 Climbing New York Center
08:56PM 40.8622 -77.6097 281° West 395 455 32,100 900 Climbing Cleveland Center
08:57PM 40.8825 -77.7517 281° West 395 455 32,900 720 Climbing Cleveland Center
08:58PM 40.9008 -77.8992 279° West 400 460 33,600 540 Climbing Cleveland Center
08:59PM 40.9231 -78.0522 281° West 411 473 34,000 180 Climbing Cleveland Center
09:00PM 40.9431 -78.2081 280° West 423 487 34,000 120 Level Cleveland Center
09:01PM 40.9631 -78.3669 280° West 437 503 34,300 480 Climbing Cleveland Center
09:02PM 40.9825 -78.5231 279° West 442 509 35,000 300 Climbing Cleveland Center
09:03PM 40.9997 -78.6764 279° West 437 503 35,000 420 Level Cleveland Center
09:04PM 41.0169 -78.8275 279° West 432 497 35,900 480 Climbing Cleveland Center
09:05PM 41.0358 -78.9783 279° West 426 490 36,000  Climbing Cleveland Center
09:06PM 41.0544 -79.1292 279° West 426 490 36,000  Level Cleveland Center
09:07PM 41.0708 -79.2803 278° West 426 490 36,000  Level Cleveland Center
09:08PM 41.0869 -79.4289 278° West 426 490 36,000  Level Cleveland Center
09:09PM 41.1050 -79.5800 279° West 426 490 36,000  Level Cleveland Center
09:10PM 41.1231 -79.7314 279° West 426 490 36,000  Level Cleveland Center
09:11PM 41.1344 -79.8775 276° West 426 490 36,000  Level Cleveland Center
09:12PM 41.1542 -80.0400 279° West 420 483 36,000  Level Cleveland Center
09:13PM 41.1714 -80.1914 279° West 420 483 36,000  Level Cleveland Center
09:14PM 41.1864 -80.3458 277° West 420 483 36,000  Level Cleveland Center
09:15PM 41.2011 -80.5031 277° West 428 493 36,000  Level Cleveland Center
09:16PM 41.2158 -80.6578 277° West 428 493 36,000  Level Cleveland Center
09:17PM 41.2303 -80.7958 278° West 428 493 36,000  Level Cleveland Center
09:18PM 41.2464 -80.9531 278° West 428 493 36,000  Level Cleveland Center
09:19PM 41.2606 -81.1106 277° West 428 493 36,000  Level Cleveland Center
09:20PM 41.2764 -81.2656 278° West 429 494 36,000  Level Cleveland Center
09:21PM 41.2958 -81.4372 279° West 429 494 36,000  Level Cleveland Center
09:22PM 41.3092 -81.5975 276° West 435 501 36,000  Level Cleveland Center
09:23PM 41.3244 -81.7556 277° West 435 501 36,000  Level Cleveland Center
09:24PM 41.3394 -81.9161 277° West 435 501 36,000  Level Cleveland Center
09:25PM 41.3519 -82.0767 276° West 440 506 36,000  Level Cleveland Center
09:26PM 41.3603 -82.2236 274° West 448 516 36,000  Level Cleveland Center
09:27PM 41.3703 -82.3872 275° West 448 516 36,000  Level Cleveland Center
09:28PM 41.3803 -82.5453 275° West 443 510 36,000  Level Cleveland Center
09:29PM 41.3878 -82.7086 274° West 448 516 36,000  Level Cleveland Center
09:30PM 41.3972 -82.8722 274° West 443 510 36,000  Level Cleveland Center
09:31PM 41.4058 -83.0497 274° West 443 510 36,000  Level Cleveland Center
09:32PM 41.4111 -83.1914 273° West 438 504 36,000  Level Cleveland Center
09:33PM 41.4197 -83.3550 274° West 444 511 36,000  Level Cleveland Center
09:34PM 41.4283 -83.5189 274° West 444 511 36,000  Level Cleveland Center
09:35PM 41.4386 -83.6828 275° West 444 511 36,000  Level Cleveland Center
09:36PM 41.4464 -83.8439 274° West 444 511 36,000  Level Cleveland Center
09:37PM 41.4519 -84.0131 273° West 444 511 36,000  Level Cleveland Center
09:39PM 41.4697 -84.3653 274° West 452 520 36,000  Level Chicago Center
09:40PM 41.4758 -84.5319 273° West 453 521 36,000  Level Chicago Center
09:41PM 41.4842 -84.7328 273° West 453 521 36,000  Level Chicago Center
09:42PM 41.4900 -84.9000 273° West 453 521 36,000  Level Chicago Center
09:43PM 41.4958 -85.0689 273° West 455 524 36,000  Level Chicago Center
09:44PM 41.5011 -85.2394 272° West 456 525 36,000  Level Chicago Center
09:45PM 41.5056 -85.4142 272° West 459 528 36,000  Level Chicago Center
09:46PM 41.5119 -85.5889 273° West 460 529 36,000  Level Chicago Center
09:47PM 41.5169 -85.7606 272° West 461 531 36,000  Level Chicago Center
09:48PM 41.5214 -85.9314 272° West 462 532 36,000  Level Chicago Center
09:49PM 41.5267 -86.1019 272° West 462 532 36,000  Level Chicago Center
09:50PM 41.5292 -86.2703 271° West 457 526 36,000  Level Chicago Center
09:51PM 41.5311 -86.4325 271° West 443 510 36,000  Level Chicago Center
09:52PM 41.5353 -86.6297 272° West 444 511 36,000  Level Chicago Center
09:53PM 41.5361 -86.7978 270° West 446 513 36,000  Level Chicago Center
09:54PM 41.5392 -86.9606 271° West 442 509 36,000  Level Chicago Center
09:55PM 41.5394 -87.1244 270° West 444 511 36,000  Level Chicago Center
09:56PM 41.5417 -87.2897 271° West 447 514 36,000  Level Chicago Center
09:57PM 41.5431 -87.4547 271° West 447 514 36,000  Level Chicago Center
09:58PM 41.5450 -87.6533 271° West 449 517 36,000  Level Chicago Center
09:59PM 41.5453 -87.8181 270° West 451 519 36,000  Level Chicago Center
10:00PM 41.5453 -87.9811 270° West 452 520 36,000  Level Chicago Center
10:01PM 41.5469 -88.1419 271° West 450 518 36,000  Level Chicago Center
10:03PM 41.5461 -88.3061 270° West 452 520 36,000  Level Chicago Center
10:04PM 41.5469 -88.5050 270° West 451 519 36,000  Level Chicago Center
10:05PM 41.5472 -88.6725 270° West 454 522 36,000  Level Chicago Center
10:06PM 41.5478 -88.8394 270° West 453 521 36,000  Level Chicago Center
10:07PM 41.5472 -89.0078 270° West 455 524 36,000  Level Chicago Center
10:08PM 41.5478 -89.1772 270° West 459 528 36,000  Level Chicago Center
10:09PM 41.5489 -89.3472 271° West 458 527 36,000  Level Chicago Center
10:10PM 41.5486 -89.5511 270° West 460 529 36,000  Level Chicago Center
10:11PM 41.5469 -89.6950 269° West 458 527 36,000  Level Chicago Center
10:12PM 41.5458 -89.8650 270° West 460 529 36,000  Level Chicago Center
10:13PM 41.5450 -90.0683 270° West 461 531 36,000  Level Chicago Center
10:14PM 41.5428 -90.2383 269° West 461 531 36,000  Level Chicago Center
10:15PM 41.5400 -90.4133 269° West 470 541 36,000  Level Chicago Center
10:16PM 41.5378 -90.5842 269° West 465 535 36,000  Level Chicago Center
10:17PM 41.5347 -90.7722 269° West 466 536 36,000  Level Chicago Center
10:18PM 41.5322 -90.9442 269° West 466 536 36,000 -300 Level Chicago Center
10:20PM 41.5269 -91.2858 269° West 462 532 35,200 -900 Descending Chicago Center
10:21PM 41.5231 -91.4558 268° West 460 529 33,300 -2,220 Descending Chicago Center
10:22PM 41.5197 -91.6300 269° West 467 537 30,700 -2,580 Descending Chicago Center
10:23PM 41.5222 -91.8044 271° West 472 543 28,100 -2,760 Descending Chicago Center
10:24PM 41.5250 -92.0133 271° West 473 544 25,100 -2,700 Descending Chicago Center
10:25PM 41.5275 -92.1872 271° West 472 543 22,600 -2,460 Descending Chicago Center
10:26PM 41.5286 -92.3542 271° West 457 526 20,100 -2,460 Descending Chicago Center
10:27PM 41.5306 -92.5186 271° West 448 516 17,600 -2,340 Descending Chicago Center
10:28PM 41.5300 -92.6750 270° West 428 493 15,400 -1,620 Descending Chicago Center
10:29PM 41.5072 -92.8317 259° West 408 470 14,400 -1,440 Descending Chicago Center
10:30PM 41.4847 -92.9869 259° West 396 456 12,500 -1,740 Descending Minneapolis Center
10:31PM 41.4667 -93.1203 260° West 363 418 11,000 -1,620 Descending Minneapolis Center
10:32PM 41.4500 -93.2314 259° West 311 358 9,300 -1,980 Descending Minneapolis Center
10:33PM 41.4333 -93.3322 258° West 282 325 7,000 -2,280 Descending Minneapolis Center
10:34PM 41.4194 -93.4342 260° West 263 303 4,700 -1,680 Descending Minneapolis Center
10:35PM 41.4372 -93.5167 286° West 233 268 3,600 -1,080 Descending Minneapolis Center
10:36PM 41.4814 -93.5639 321° Northwest 207 238 2,600 -900 Descending Minneapolis Center
10:37PM 41.5044 -93.6144 301° West 152 175 1,800 -780 Descending Minneapolis Center